sensor_id;sensor_type;location;lat;lon;timestamp;P1;durP1;ratioP1;P2;durP2;ratioP2
1682;SDS011;13252;53.596;10.060;2023-04-01T00:02:01;7.50;;;6.47;;
1682;SDS011;13252;53.596;10.060;2023-04-01T00:04:29;20.63;;;7.40;;
1682;SDS011;13252;53.596;10.060;2023-04-01T00:06:57;15.47;;;6.80;;
1682;SDS011;13252;53.596;10.060;2023-04-01T00:09:25;13.63;;;7.00;;
1682;SDS011;13252;53.596;10.060;2023-04-01T00:11:55;12.60;;;6.53;;
1682;SDS011;13252;53.596;10.060;2023-04-01T00:14:23;8.90;;;6.67;;
1682;SDS011;13252;53.596;10.060;2023-04-01T00:16:52;8.10;;;6.43;;
1682;SDS011;13252;53.596;10.060;2023-04-01T00:19:19;10.23;;;6.63;;
1682;SDS011;13252;53.596;10.060;2023-04-01T00:21:47;10.90;;;6.43;;
1682;SDS011;13252;53.596;10.060;2023-04-01T00:24:15;34.17;;;7.50;;
1682;SDS011;13252;53.596;10.060;2023-04-01T00:26:42;16.20;;;7.47;;
1682;SDS011;13252;53.596;10.060;2023-04-01T00:29:11;8.73;;;6.43;;
1682;SDS011;13252;53.596;10.060;2023-04-01T00:31:38;14.57;;;7.00;;
1682;SDS011;13252;53.596;10.060;2023-04-01T00:34:08;19.57;;;7.87;;
1682;SDS011;13252;53.596;10.060;2023-04-01T00:36:35;11.20;;;6.80;;
1682;SDS011;13252;53.596;10.060;2023-04-01T00:39:03;12.23;;;7.07;;
1682;SDS011;13252;53.596;10.060;2023-04-01T00:41:31;10.40;;;6.53;;
1682;SDS011;13252;53.596;10.060;2023-04-01T00:44:15;12.83;;;7.17;;
1682;SDS011;13252;53.596;10.060;2023-04-01T00:46:44;15.00;;;6.70;;
1682;SDS011;13252;53.596;10.060;2023-04-01T00:49:13;13.00;;;6.40;;
1682;SDS011;13252;53.596;10.060;2023-04-01T00:51:44;13.40;;;7.30;;
1682;SDS011;13252;53.596;10.060;2023-04-01T00:54:14;12.40;;;7.13;;
1682;SDS011;13252;53.596;10.060;2023-04-01T00:56:44;12.43;;;7.03;;
1682;SDS011;13252;53.596;10.060;2023-04-01T00:59:16;17.20;;;7.10;;
1682;SDS011;13252;53.596;10.060;2023-04-01T01:01:46;13.80;;;7.40;;
1682;SDS011;13252;53.596;10.060;2023-04-01T01:04:23;11.63;;;7.27;;
1682;SDS011;13252;53.596;10.060;2023-04-01T01:06:54;17.00;;;6.80;;
1682;SDS011;13252;53.596;10.060;2023-04-01T01:09:30;13.43;;;6.80;;
1682;SDS011;13252;53.596;10.060;2023-04-01T01:12:02;14.40;;;7.47;;
1682;SDS011;13252;53.596;10.060;2023-04-01T01:14:36;10.60;;;6.90;;
1682;SDS011;13252;53.596;10.060;2023-04-01T01:17:10;16.40;;;7.50;;
1682;SDS011;13252;53.596;10.060;2023-04-01T01:19:50;9.80;;;7.10;;
1682;SDS011;13252;53.596;10.060;2023-04-01T01:22:29;9.90;;;6.23;;
1682;SDS011;13252;53.596;10.060;2023-04-01T01:25:10;12.37;;;7.47;;
1682;SDS011;13252;53.596;10.060;2023-04-01T01:27:45;11.97;;;7.73;;
1682;SDS011;13252;53.596;10.060;2023-04-01T01:30:22;14.87;;;7.77;;
1682;SDS011;13252;53.596;10.060;2023-04-01T01:33:10;12.40;;;7.10;;
1682;SDS011;13252;53.596;10.060;2023-04-01T01:35:45;13.33;;;6.57;;
1682;SDS011;13252;53.596;10.060;2023-04-01T01:38:18;13.47;;;7.80;;
1682;SDS011;13252;53.596;10.060;2023-04-01T01:41:07;13.90;;;7.57;;
1682;SDS011;13252;53.596;10.060;2023-04-01T01:43:36;12.93;;;8.60;;
1682;SDS011;13252;53.596;10.060;2023-04-01T01:46:08;10.47;;;7.20;;
1682;SDS011;13252;53.596;10.060;2023-04-01T01:48:38;10.90;;;6.53;;
1682;SDS011;13252;53.596;10.060;2023-04-01T01:51:10;10.40;;;6.30;;
1682;SDS011;13252;53.596;10.060;2023-04-01T01:53:38;8.90;;;7.23;;
1682;SDS011;13252;53.596;10.060;2023-04-01T01:56:06;12.43;;;7.27;;
1682;SDS011;13252;53.596;10.060;2023-04-01T01:58:38;12.17;;;6.77;;
1682;SDS011;13252;53.596;10.060;2023-04-01T02:01:13;12.13;;;7.33;;
1682;SDS011;13252;53.596;10.060;2023-04-01T02:03:43;10.00;;;6.67;;
1682;SDS011;13252;53.596;10.060;2023-04-01T02:06:15;12.20;;;6.87;;
1682;SDS011;13252;53.596;10.060;2023-04-01T02:08:44;12.07;;;7.33;;
1682;SDS011;13252;53.596;10.060;2023-04-01T02:11:15;14.80;;;8.07;;
1682;SDS011;13252;53.596;10.060;2023-04-01T02:13:49;17.27;;;7.53;;
1682;SDS011;13252;53.596;10.060;2023-04-01T02:16:20;16.87;;;6.50;;
1682;SDS011;13252;53.596;10.060;2023-04-01T02:18:53;13.87;;;6.33;;
1682;SDS011;13252;53.596;10.060;2023-04-01T02:21:24;10.43;;;7.27;;
1682;SDS011;13252;53.596;10.060;2023-04-01T02:23:54;15.43;;;7.97;;
1682;SDS011;13252;53.596;10.060;2023-04-01T02:26:22;12.87;;;7.30;;
1682;SDS011;13252;53.596;10.060;2023-04-01T02:28:51;10.87;;;7.03;;
1682;SDS011;13252;53.596;10.060;2023-04-01T02:31:20;13.87;;;6.80;;
1682;SDS011;13252;53.596;10.060;2023-04-01T02:33:49;10.27;;;7.63;;
1682;SDS011;13252;53.596;10.060;2023-04-01T02:36:17;12.57;;;7.80;;
1682;SDS011;13252;53.596;10.060;2023-04-01T02:38:46;14.77;;;7.83;;
1682;SDS011;13252;53.596;10.060;2023-04-01T02:41:15;16.50;;;8.00;;
1682;SDS011;13252;53.596;10.060;2023-04-01T02:43:43;12.43;;;7.63;;
1682;SDS011;13252;53.596;10.060;2023-04-01T02:46:10;18.87;;;8.53;;
1682;SDS011;13252;53.596;10.060;2023-04-01T02:48:38;9.67;;;7.07;;
1682;SDS011;13252;53.596;10.060;2023-04-01T02:51:06;20.10;;;8.87;;
1682;SDS011;13252;53.596;10.060;2023-04-01T02:53:34;14.30;;;9.00;;
1682;SDS011;13252;53.596;10.060;2023-04-01T02:56:03;14.20;;;8.17;;
1682;SDS011;13252;53.596;10.060;2023-04-01T02:58:31;17.80;;;8.50;;
1682;SDS011;13252;53.596;10.060;2023-04-01T03:00:59;14.67;;;8.67;;
1682;SDS011;13252;53.596;10.060;2023-04-01T03:03:26;12.27;;;8.50;;
1682;SDS011;13252;53.596;10.060;2023-04-01T03:05:54;15.30;;;9.73;;
1682;SDS011;13252;53.596;10.060;2023-04-01T03:08:24;15.53;;;10.43;;
1682;SDS011;13252;53.596;10.060;2023-04-01T03:10:52;11.27;;;8.10;;
1682;SDS011;13252;53.596;10.060;2023-04-01T03:13:21;21.73;;;7.90;;
1682;SDS011;13252;53.596;10.060;2023-04-01T03:15:49;16.53;;;9.23;;
1682;SDS011;13252;53.596;10.060;2023-04-01T03:18:17;10.77;;;8.43;;
1682;SDS011;13252;53.596;10.060;2023-04-01T03:20:45;12.43;;;9.20;;
1682;SDS011;13252;53.596;10.060;2023-04-01T03:23:13;12.00;;;7.90;;
1682;SDS011;13252;53.596;10.060;2023-04-01T03:25:43;14.40;;;8.60;;
1682;SDS011;13252;53.596;10.060;2023-04-01T03:28:11;12.27;;;8.37;;
1682;SDS011;13252;53.596;10.060;2023-04-01T03:30:40;9.83;;;7.90;;
1682;SDS011;13252;53.596;10.060;2023-04-01T03:33:09;13.50;;;9.00;;
1682;SDS011;13252;53.596;10.060;2023-04-01T03:35:37;12.90;;;7.90;;
1682;SDS011;13252;53.596;10.060;2023-04-01T03:38:05;11.20;;;7.23;;
1682;SDS011;13252;53.596;10.060;2023-04-01T03:40:32;10.60;;;7.47;;
1682;SDS011;13252;53.596;10.060;2023-04-01T03:43:03;8.53;;;7.47;;
1682;SDS011;13252;53.596;10.060;2023-04-01T03:45:35;16.00;;;9.67;;
1682;SDS011;13252;53.596;10.060;2023-04-01T03:48:05;10.37;;;8.17;;
1682;SDS011;13252;53.596;10.060;2023-04-01T03:50:33;14.00;;;9.00;;
1682;SDS011;13252;53.596;10.060;2023-04-01T03:53:01;10.13;;;7.63;;
1682;SDS011;13252;53.596;10.060;2023-04-01T03:55:29;10.40;;;7.40;;
1682;SDS011;13252;53.596;10.060;2023-04-01T03:57:57;13.47;;;8.20;;
1682;SDS011;13252;53.596;10.060;2023-04-01T04:00:25;11.83;;;8.73;;
1682;SDS011;13252;53.596;10.060;2023-04-01T04:02:54;9.40;;;7.70;;
1682;SDS011;13252;53.596;10.060;2023-04-01T04:05:30;12.27;;;8.60;;
1682;SDS011;13252;53.596;10.060;2023-04-01T04:07:59;12.90;;;8.67;;
1682;SDS011;13252;53.596;10.060;2023-04-01T04:10:27;11.23;;;8.20;;
1682;SDS011;13252;53.596;10.060;2023-04-01T04:12:55;11.70;;;8.50;;
1682;SDS011;13252;53.596;10.060;2023-04-01T04:15:27;11.77;;;8.87;;
1682;SDS011;13252;53.596;10.060;2023-04-01T04:17:55;15.07;;;10.67;;
1682;SDS011;13252;53.596;10.060;2023-04-01T04:20:23;10.33;;;9.33;;
1682;SDS011;13252;53.596;10.060;2023-04-01T04:22:52;11.53;;;9.50;;
1682;SDS011;13252;53.596;10.060;2023-04-01T04:25:20;14.00;;;9.93;;
1682;SDS011;13252;53.596;10.060;2023-04-01T04:27:48;15.53;;;10.30;;
1682;SDS011;13252;53.596;10.060;2023-04-01T04:30:17;13.17;;;9.43;;
1682;SDS011;13252;53.596;10.060;2023-04-01T04:32:44;13.40;;;9.50;;
1682;SDS011;13252;53.596;10.060;2023-04-01T04:35:12;12.37;;;10.10;;
1682;SDS011;13252;53.596;10.060;2023-04-01T04:37:41;12.13;;;9.80;;
1682;SDS011;13252;53.596;10.060;2023-04-01T04:40:10;11.93;;;10.83;;
1682;SDS011;13252;53.596;10.060;2023-04-01T04:42:40;11.70;;;10.50;;
1682;SDS011;13252;53.596;10.060;2023-04-01T04:45:11;12.23;;;10.20;;
1682;SDS011;13252;53.596;10.060;2023-04-01T04:47:47;11.43;;;10.23;;
1682;SDS011;13252;53.596;10.060;2023-04-01T04:50:15;10.87;;;9.77;;
1682;SDS011;13252;53.596;10.060;2023-04-01T04:52:43;16.63;;;11.23;;
1682;SDS011;13252;53.596;10.060;2023-04-01T04:55:13;14.60;;;9.70;;
1682;SDS011;13252;53.596;10.060;2023-04-01T04:57:44;10.70;;;9.60;;
1682;SDS011;13252;53.596;10.060;2023-04-01T05:00:12;13.90;;;10.73;;
1682;SDS011;13252;53.596;10.060;2023-04-01T05:02:53;11.10;;;9.20;;
1682;SDS011;13252;53.596;10.060;2023-04-01T05:05:21;13.40;;;8.87;;
1682;SDS011;13252;53.596;10.060;2023-04-01T05:07:49;8.77;;;7.70;;
1682;SDS011;13252;53.596;10.060;2023-04-01T05:10:18;9.57;;;7.60;;
1682;SDS011;13252;53.596;10.060;2023-04-01T05:12:47;8.97;;;8.07;;
1682;SDS011;13252;53.596;10.060;2023-04-01T05:15:19;3.53;;;2.70;;
1682;SDS011;13252;53.596;10.060;2023-04-01T05:17:47;1.90;;;1.20;;
1682;SDS011;13252;53.596;10.060;2023-04-01T05:20:15;2.20;;;1.30;;
1682;SDS011;13252;53.596;10.060;2023-04-01T05:22:49;2.57;;;1.33;;
1682;SDS011;13252;53.596;10.060;2023-04-01T05:25:19;2.00;;;1.10;;
1682;SDS011;13252;53.596;10.060;2023-04-01T05:27:47;2.03;;;1.40;;
1682;SDS011;13252;53.596;10.060;2023-04-01T05:30:15;2.37;;;1.17;;
1682;SDS011;13252;53.596;10.060;2023-04-01T05:32:57;2.10;;;1.40;;
1682;SDS011;13252;53.596;10.060;2023-04-01T05:35:26;1.90;;;1.00;;
1682;SDS011;13252;53.596;10.060;2023-04-01T05:37:54;1.70;;;1.00;;
1682;SDS011;13252;53.596;10.060;2023-04-01T05:40:23;2.03;;;1.30;;
1682;SDS011;13252;53.596;10.060;2023-04-01T05:42:51;2.50;;;1.07;;
1682;SDS011;13252;53.596;10.060;2023-04-01T05:45:19;3.00;;;1.50;;
1682;SDS011;13252;53.596;10.060;2023-04-01T05:48:05;2.00;;;1.10;;
1682;SDS011;13252;53.596;10.060;2023-04-01T05:50:39;2.97;;;1.50;;
1682;SDS011;13252;53.596;10.060;2023-04-01T05:53:09;2.33;;;1.17;;
1682;SDS011;13252;53.596;10.060;2023-04-01T05:55:41;4.50;;;1.87;;
1682;SDS011;13252;53.596;10.060;2023-04-01T05:58:09;2.10;;;1.30;;
1682;SDS011;13252;53.596;10.060;2023-04-01T06:00:41;2.70;;;1.57;;
1682;SDS011;13252;53.596;10.060;2023-04-01T06:03:10;2.43;;;1.50;;
1682;SDS011;13252;53.596;10.060;2023-04-01T06:05:39;3.93;;;2.07;;
1682;SDS011;13252;53.596;10.060;2023-04-01T06:08:10;2.87;;;1.70;;
1682;SDS011;13252;53.596;10.060;2023-04-01T06:11:01;2.47;;;1.87;;
1682;SDS011;13252;53.596;10.060;2023-04-01T06:13:36;2.70;;;1.60;;
1682;SDS011;13252;53.596;10.060;2023-04-01T06:16:12;2.37;;;1.87;;
1682;SDS011;13252;53.596;10.060;2023-04-01T06:18:49;4.80;;;1.50;;
1682;SDS011;13252;53.596;10.060;2023-04-01T06:21:37;2.60;;;1.80;;
1682;SDS011;13252;53.596;10.060;2023-04-01T06:24:15;2.43;;;1.90;;
1682;SDS011;13252;53.596;10.060;2023-04-01T06:26:52;3.07;;;1.90;;
1682;SDS011;13252;53.596;10.060;2023-04-01T06:29:36;2.97;;;1.30;;
1682;SDS011;13252;53.596;10.060;2023-04-01T06:32:20;2.23;;;1.50;;
1682;SDS011;13252;53.596;10.060;2023-04-01T06:34:57;2.40;;;1.20;;
1682;SDS011;13252;53.596;10.060;2023-04-01T06:37:54;2.30;;;1.33;;
1682;SDS011;13252;53.596;10.060;2023-04-01T06:40:44;2.33;;;1.50;;
1682;SDS011;13252;53.596;10.060;2023-04-01T06:43:23;1.80;;;1.20;;
1682;SDS011;13252;53.596;10.060;2023-04-01T06:46:22;1.93;;;1.10;;
1682;SDS011;13252;53.596;10.060;2023-04-01T06:49:21;1.67;;;1.03;;
1682;SDS011;13252;53.596;10.060;2023-04-01T06:52:16;3.33;;;1.00;;
1682;SDS011;13252;53.596;10.060;2023-04-01T06:55:14;1.90;;;1.10;;
1682;SDS011;13252;53.596;10.060;2023-04-01T06:58:19;1.83;;;1.03;;
1682;SDS011;13252;53.596;10.060;2023-04-01T07:00:51;2.07;;;1.33;;
1682;SDS011;13252;53.596;10.060;2023-04-01T07:03:21;2.90;;;1.10;;
1682;SDS011;13252;53.596;10.060;2023-04-01T07:05:51;2.17;;;1.00;;
1682;SDS011;13252;53.596;10.060;2023-04-01T07:08:21;1.60;;;0.90;;
1682;SDS011;13252;53.596;10.060;2023-04-01T07:10:53;2.40;;;1.20;;
1682;SDS011;13252;53.596;10.060;2023-04-01T07:13:43;2.17;;;1.10;;
1682;SDS011;13252;53.596;10.060;2023-04-01T07:16:18;2.30;;;1.00;;
1682;SDS011;13252;53.596;10.060;2023-04-01T07:18:48;1.80;;;1.13;;
1682;SDS011;13252;53.596;10.060;2023-04-01T07:21:22;3.57;;;1.20;;
1682;SDS011;13252;53.596;10.060;2023-04-01T07:23:56;1.47;;;0.80;;
1682;SDS011;13252;53.596;10.060;2023-04-01T07:26:49;2.60;;;0.97;;
1682;SDS011;13252;53.596;10.060;2023-04-01T07:29:22;1.77;;;0.97;;
1682;SDS011;13252;53.596;10.060;2023-04-01T07:32:02;1.70;;;1.10;;
1682;SDS011;13252;53.596;10.060;2023-04-01T07:34:38;1.80;;;0.87;;
1682;SDS011;13252;53.596;10.060;2023-04-01T07:37:17;2.10;;;1.07;;
1682;SDS011;13252;53.596;10.060;2023-04-01T07:39:51;2.10;;;1.10;;
1682;SDS011;13252;53.596;10.060;2023-04-01T07:42:33;1.73;;;0.83;;
1682;SDS011;13252;53.596;10.060;2023-04-01T07:45:08;1.90;;;1.00;;
1682;SDS011;13252;53.596;10.060;2023-04-01T07:47:48;2.03;;;1.03;;
1682;SDS011;13252;53.596;10.060;2023-04-01T07:50:26;4.37;;;1.00;;
1682;SDS011;13252;53.596;10.060;2023-04-01T07:52:59;1.90;;;0.97;;
1682;SDS011;13252;53.596;10.060;2023-04-01T07:55:34;2.33;;;1.07;;
1682;SDS011;13252;53.596;10.060;2023-04-01T07:58:08;2.23;;;0.80;;
1682;SDS011;13252;53.596;10.060;2023-04-01T08:00:45;1.90;;;0.97;;
1682;SDS011;13252;53.596;10.060;2023-04-01T08:03:28;2.00;;;1.30;;
1682;SDS011;13252;53.596;10.060;2023-04-01T08:06:05;2.40;;;1.00;;
1682;SDS011;13252;53.596;10.060;2023-04-01T08:08:41;2.00;;;1.00;;
1682;SDS011;13252;53.596;10.060;2023-04-01T08:11:49;2.10;;;0.80;;
1682;SDS011;13252;53.596;10.060;2023-04-01T08:14:46;2.10;;;1.00;;
1682;SDS011;13252;53.596;10.060;2023-04-01T08:17:52;1.53;;;0.53;;
1682;SDS011;13252;53.596;10.060;2023-04-01T08:20:27;1.90;;;0.90;;
1682;SDS011;13252;53.596;10.060;2023-04-01T08:23:00;1.83;;;0.90;;
1682;SDS011;13252;53.596;10.060;2023-04-01T08:25:37;1.73;;;0.87;;
1682;SDS011;13252;53.596;10.060;2023-04-01T08:28:10;1.57;;;0.90;;
1682;SDS011;13252;53.596;10.060;2023-04-01T08:30:43;4.90;;;1.13;;
1682;SDS011;13252;53.596;10.060;2023-04-01T08:33:16;2.20;;;1.00;;
1682;SDS011;13252;53.596;10.060;2023-04-01T08:35:54;1.50;;;0.80;;
1682;SDS011;13252;53.596;10.060;2023-04-01T08:38:26;2.13;;;1.37;;
1682;SDS011;13252;53.596;10.060;2023-04-01T08:40:58;1.80;;;0.63;;
1682;SDS011;13252;53.596;10.060;2023-04-01T08:44:09;1.90;;;1.10;;
1682;SDS011;13252;53.596;10.060;2023-04-01T08:53:00;1.60;;;1.00;;
1682;SDS011;13252;53.596;10.060;2023-04-01T08:55:31;1.43;;;0.60;;
1682;SDS011;13252;53.596;10.060;2023-04-01T08:58:25;1.87;;;0.70;;
1682;SDS011;13252;53.596;10.060;2023-04-01T09:01:13;3.23;;;0.80;;
1682;SDS011;13252;53.596;10.060;2023-04-01T09:03:52;2.63;;;1.30;;
1682;SDS011;13252;53.596;10.060;2023-04-01T09:06:31;1.70;;;1.10;;
1682;SDS011;13252;53.596;10.060;2023-04-01T09:09:12;5.87;;;1.33;;
1682;SDS011;13252;53.596;10.060;2023-04-01T09:11:57;2.03;;;0.97;;
1682;SDS011;13252;53.596;10.060;2023-04-01T09:14:39;1.63;;;0.70;;
1682;SDS011;13252;53.596;10.060;2023-04-01T09:20:30;1.50;;;0.73;;
1682;SDS011;13252;53.596;10.060;2023-04-01T09:23:10;2.27;;;0.90;;
1682;SDS011;13252;53.596;10.060;2023-04-01T09:25:53;2.40;;;1.20;;
1682;SDS011;13252;53.596;10.060;2023-04-01T09:28:27;1.40;;;0.70;;
1682;SDS011;13252;53.596;10.060;2023-04-01T09:34:15;1.80;;;0.70;;
1682;SDS011;13252;53.596;10.060;2023-04-01T09:37:03;2.13;;;0.83;;
1682;SDS011;13252;53.596;10.060;2023-04-01T09:39:44;7.40;;;1.27;;
1682;SDS011;13252;53.596;10.060;2023-04-01T09:42:29;1.73;;;0.90;;
1682;SDS011;13252;53.596;10.060;2023-04-01T09:45:18;1.67;;;1.07;;
1682;SDS011;13252;53.596;10.060;2023-04-01T09:47:57;1.63;;;1.03;;
1682;SDS011;13252;53.596;10.060;2023-04-01T09:50:35;3.80;;;1.87;;
1682;SDS011;13252;53.596;10.060;2023-04-01T09:53:11;2.03;;;1.20;;
1682;SDS011;13252;53.596;10.060;2023-04-01T09:56:00;4.20;;;1.03;;
1682;SDS011;13252;53.596;10.060;2023-04-01T10:05:33;1.70;;;0.80;;
1682;SDS011;13252;53.596;10.060;2023-04-01T10:11:45;2.17;;;0.50;;
1682;SDS011;13252;53.596;10.060;2023-04-01T10:14:33;1.70;;;0.80;;
1682;SDS011;13252;53.596;10.060;2023-04-01T10:17:17;2.40;;;0.87;;
1682;SDS011;13252;53.596;10.060;2023-04-01T10:20:02;1.87;;;0.60;;
1682;SDS011;13252;53.596;10.060;2023-04-01T10:25:34;1.83;;;0.70;;
1682;SDS011;13252;53.596;10.060;2023-04-01T10:28:26;2.17;;;0.80;;
1682;SDS011;13252;53.596;10.060;2023-04-01T10:31:53;1.63;;;0.80;;
1682;SDS011;13252;53.596;10.060;2023-04-01T10:37:32;2.13;;;0.93;;
1682;SDS011;13252;53.596;10.060;2023-04-01T10:40:36;1.53;;;0.70;;
1682;SDS011;13252;53.596;10.060;2023-04-01T10:43:38;2.80;;;0.80;;
1682;SDS011;13252;53.596;10.060;2023-04-01T10:46:28;1.30;;;0.50;;
1682;SDS011;13252;53.596;10.060;2023-04-01T11:05:59;2.07;;;0.50;;
1682;SDS011;13252;53.596;10.060;2023-04-01T11:17:53;1.63;;;0.80;;
1682;SDS011;13252;53.596;10.060;2023-04-01T11:23:59;2.10;;;1.03;;
1682;SDS011;13252;53.596;10.060;2023-04-01T11:27:20;1.60;;;0.80;;
1682;SDS011;13252;53.596;10.060;2023-04-01T11:32:50;2.63;;;1.07;;
1682;SDS011;13252;53.596;10.060;2023-04-01T11:35:36;1.73;;;1.00;;
1682;SDS011;13252;53.596;10.060;2023-04-01T11:41:25;4.37;;;1.57;;
1682;SDS011;13252;53.596;10.060;2023-04-01T11:44:17;2.30;;;1.30;;
1682;SDS011;13252;53.596;10.060;2023-04-01T11:47:03;3.03;;;1.37;;
1682;SDS011;13252;53.596;10.060;2023-04-01T11:49:47;3.67;;;1.97;;
1682;SDS011;13252;53.596;10.060;2023-04-01T11:52:37;4.83;;;2.60;;
1682;SDS011;13252;53.596;10.060;2023-04-01T11:55:18;3.30;;;2.10;;
1682;SDS011;13252;53.596;10.060;2023-04-01T11:58:15;4.70;;;3.43;;
1682;SDS011;13252;53.596;10.060;2023-04-01T12:03:43;3.23;;;2.00;;
1682;SDS011;13252;53.596;10.060;2023-04-01T12:06:30;6.20;;;3.27;;
1682;SDS011;13252;53.596;10.060;2023-04-01T12:09:04;4.70;;;2.20;;
1682;SDS011;13252;53.596;10.060;2023-04-01T12:11:38;3.30;;;2.47;;
1682;SDS011;13252;53.596;10.060;2023-04-01T12:14:14;4.00;;;2.50;;
1682;SDS011;13252;53.596;10.060;2023-04-01T12:16:47;5.90;;;3.07;;
1682;SDS011;13252;53.596;10.060;2023-04-01T12:19:23;4.30;;;3.10;;
1682;SDS011;13252;53.596;10.060;2023-04-01T12:22:00;4.07;;;3.17;;
1682;SDS011;13252;53.596;10.060;2023-04-01T12:24:44;6.60;;;3.33;;
1682;SDS011;13252;53.596;10.060;2023-04-01T12:30:05;5.27;;;2.70;;
1682;SDS011;13252;53.596;10.060;2023-04-01T12:32:42;3.87;;;2.70;;
1682;SDS011;13252;53.596;10.060;2023-04-01T12:35:20;3.77;;;3.10;;
1682;SDS011;13252;53.596;10.060;2023-04-01T12:37:50;3.73;;;2.77;;
1682;SDS011;13252;53.596;10.060;2023-04-01T12:40:40;6.50;;;3.10;;
1682;SDS011;13252;53.596;10.060;2023-04-01T12:43:28;5.47;;;3.10;;
1682;SDS011;13252;53.596;10.060;2023-04-01T12:46:05;5.20;;;3.53;;
1682;SDS011;13252;53.596;10.060;2023-04-01T12:51:35;3.67;;;2.13;;
1682;SDS011;13252;53.596;10.060;2023-04-01T13:00:38;4.90;;;3.03;;
1682;SDS011;13252;53.596;10.060;2023-04-01T13:03:16;3.50;;;2.30;;
1682;SDS011;13252;53.596;10.060;2023-04-01T13:06:01;5.70;;;3.20;;
1682;SDS011;13252;53.596;10.060;2023-04-01T13:08:42;3.13;;;2.00;;
1682;SDS011;13252;53.596;10.060;2023-04-01T13:11:14;5.97;;;3.20;;
1682;SDS011;13252;53.596;10.060;2023-04-01T13:13:51;4.40;;;2.50;;
1682;SDS011;13252;53.596;10.060;2023-04-01T13:16:28;3.47;;;1.80;;
1682;SDS011;13252;53.596;10.060;2023-04-01T13:19:00;4.67;;;2.40;;
1682;SDS011;13252;53.596;10.060;2023-04-01T13:21:34;4.13;;;2.63;;
1682;SDS011;13252;53.596;10.060;2023-04-01T13:24:10;7.70;;;2.97;;
1682;SDS011;13252;53.596;10.060;2023-04-01T13:26:47;4.37;;;2.67;;
1682;SDS011;13252;53.596;10.060;2023-04-01T13:29:21;3.30;;;2.10;;
1682;SDS011;13252;53.596;10.060;2023-04-01T13:31:55;3.57;;;2.20;;
1682;SDS011;13252;53.596;10.060;2023-04-01T13:34:34;5.83;;;2.50;;
1682;SDS011;13252;53.596;10.060;2023-04-01T13:37:14;4.30;;;2.53;;
1682;SDS011;13252;53.596;10.060;2023-04-01T13:42:47;3.73;;;2.30;;
1682;SDS011;13252;53.596;10.060;2023-04-01T13:45:18;5.40;;;2.90;;
1682;SDS011;13252;53.596;10.060;2023-04-01T13:50:53;4.10;;;2.67;;
1682;SDS011;13252;53.596;10.060;2023-04-01T13:53:37;5.93;;;3.43;;
1682;SDS011;13252;53.596;10.060;2023-04-01T13:56:15;5.83;;;3.60;;
1682;SDS011;13252;53.596;10.060;2023-04-01T14:01:49;4.10;;;2.70;;
1682;SDS011;13252;53.596;10.060;2023-04-01T14:04:39;4.30;;;2.60;;
1682;SDS011;13252;53.596;10.060;2023-04-01T14:07:31;5.40;;;3.40;;
1682;SDS011;13252;53.596;10.060;2023-04-01T14:10:07;4.03;;;2.53;;
1682;SDS011;13252;53.596;10.060;2023-04-01T14:12:42;3.00;;;2.43;;
1682;SDS011;13252;53.596;10.060;2023-04-01T14:15:20;8.37;;;3.93;;
1682;SDS011;13252;53.596;10.060;2023-04-01T14:18:02;3.57;;;2.37;;
1682;SDS011;13252;53.596;10.060;2023-04-01T14:20:45;9.27;;;3.73;;
1682;SDS011;13252;53.596;10.060;2023-04-01T14:23:27;9.03;;;4.47;;
1682;SDS011;13252;53.596;10.060;2023-04-01T14:26:04;4.70;;;3.30;;
1682;SDS011;13252;53.596;10.060;2023-04-01T14:28:39;8.80;;;4.57;;
1682;SDS011;13252;53.596;10.060;2023-04-01T14:31:15;3.33;;;2.63;;
1682;SDS011;13252;53.596;10.060;2023-04-01T14:33:51;7.93;;;4.17;;
1682;SDS011;13252;53.596;10.060;2023-04-01T14:36:32;7.10;;;4.03;;
1682;SDS011;13252;53.596;10.060;2023-04-01T14:39:24;3.63;;;3.17;;
1682;SDS011;13252;53.596;10.060;2023-04-01T14:42:02;8.87;;;4.60;;
1682;SDS011;13252;53.596;10.060;2023-04-01T14:44:57;6.57;;;3.93;;
1682;SDS011;13252;53.596;10.060;2023-04-01T14:47:39;8.00;;;4.20;;
1682;SDS011;13252;53.596;10.060;2023-04-01T14:50:12;7.00;;;3.07;;
1682;SDS011;13252;53.596;10.060;2023-04-01T14:52:42;6.77;;;4.00;;
1682;SDS011;13252;53.596;10.060;2023-04-01T14:55:19;7.67;;;5.20;;
1682;SDS011;13252;53.596;10.060;2023-04-01T14:57:58;8.57;;;6.10;;
1682;SDS011;13252;53.596;10.060;2023-04-01T15:00:27;6.57;;;3.90;;
1682;SDS011;13252;53.596;10.060;2023-04-01T15:03:17;13.97;;;4.20;;
1682;SDS011;13252;53.596;10.060;2023-04-01T15:05:49;8.77;;;5.10;;
1682;SDS011;13252;53.596;10.060;2023-04-01T15:08:20;10.30;;;4.67;;
1682;SDS011;13252;53.596;10.060;2023-04-01T15:10:52;14.30;;;5.27;;
1682;SDS011;13252;53.596;10.060;2023-04-01T15:13:30;7.87;;;5.83;;
1682;SDS011;13252;53.596;10.060;2023-04-01T15:16:08;7.47;;;5.37;;
1682;SDS011;13252;53.596;10.060;2023-04-01T15:18:44;6.60;;;4.53;;
1682;SDS011;13252;53.596;10.060;2023-04-01T15:21:23;14.87;;;5.60;;
1682;SDS011;13252;53.596;10.060;2023-04-01T15:24:03;11.00;;;5.53;;
1682;SDS011;13252;53.596;10.060;2023-04-01T15:26:46;7.07;;;4.70;;
1682;SDS011;13252;53.596;10.060;2023-04-01T15:29:28;7.37;;;4.60;;
1682;SDS011;13252;53.596;10.060;2023-04-01T15:32:13;10.57;;;4.37;;
1682;SDS011;13252;53.596;10.060;2023-04-01T15:34:45;9.60;;;5.50;;
1682;SDS011;13252;53.596;10.060;2023-04-01T15:37:19;7.50;;;5.70;;
1682;SDS011;13252;53.596;10.060;2023-04-01T15:39:54;6.80;;;5.77;;
1682;SDS011;13252;53.596;10.060;2023-04-01T15:42:34;10.20;;;5.27;;
1682;SDS011;13252;53.596;10.060;2023-04-01T15:45:12;6.23;;;5.13;;
1682;SDS011;13252;53.596;10.060;2023-04-01T15:47:45;11.23;;;6.00;;
1682;SDS011;13252;53.596;10.060;2023-04-01T15:53:12;13.43;;;4.77;;
1682;SDS011;13252;53.596;10.060;2023-04-01T15:55:52;10.00;;;6.10;;
1682;SDS011;13252;53.596;10.060;2023-04-01T15:58:30;14.30;;;4.77;;
1682;SDS011;13252;53.596;10.060;2023-04-01T16:01:07;9.40;;;5.63;;
1682;SDS011;13252;53.596;10.060;2023-04-01T16:03:44;20.93;;;5.13;;
1682;SDS011;13252;53.596;10.060;2023-04-01T16:06:19;10.37;;;6.60;;
1682;SDS011;13252;53.596;10.060;2023-04-01T16:09:02;7.90;;;4.97;;
1682;SDS011;13252;53.596;10.060;2023-04-01T16:11:49;10.63;;;6.20;;
1682;SDS011;13252;53.596;10.060;2023-04-01T16:14:27;9.43;;;6.53;;
1682;SDS011;13252;53.596;10.060;2023-04-01T16:17:09;9.60;;;5.67;;
1682;SDS011;13252;53.596;10.060;2023-04-01T16:19:51;9.83;;;4.70;;
1682;SDS011;13252;53.596;10.060;2023-04-01T16:22:20;8.40;;;5.23;;
1682;SDS011;13252;53.596;10.060;2023-04-01T16:24:51;7.63;;;5.57;;
1682;SDS011;13252;53.596;10.060;2023-04-01T16:27:25;8.37;;;4.70;;
1682;SDS011;13252;53.596;10.060;2023-04-01T16:29:59;8.07;;;5.40;;
1682;SDS011;13252;53.596;10.060;2023-04-01T16:32:31;6.37;;;5.10;;
1682;SDS011;13252;53.596;10.060;2023-04-01T16:35:10;13.10;;;6.10;;
1682;SDS011;13252;53.596;10.060;2023-04-01T16:37:45;14.10;;;5.70;;
1682;SDS011;13252;53.596;10.060;2023-04-01T16:40:16;9.13;;;6.50;;
1682;SDS011;13252;53.596;10.060;2023-04-01T16:42:51;8.00;;;5.23;;
1682;SDS011;13252;53.596;10.060;2023-04-01T16:45:24;11.47;;;6.10;;
1682;SDS011;13252;53.596;10.060;2023-04-01T16:48:00;10.43;;;6.73;;
1682;SDS011;13252;53.596;10.060;2023-04-01T16:50:39;6.13;;;4.30;;
1682;SDS011;13252;53.596;10.060;2023-04-01T16:53:14;9.20;;;4.87;;
1682;SDS011;13252;53.596;10.060;2023-04-01T16:55:46;11.07;;;5.37;;
1682;SDS011;13252;53.596;10.060;2023-04-01T16:58:18;11.20;;;6.00;;
1682;SDS011;13252;53.596;10.060;2023-04-01T17:00:51;9.47;;;5.97;;
1682;SDS011;13252;53.596;10.060;2023-04-01T17:03:22;10.90;;;5.80;;
1682;SDS011;13252;53.596;10.060;2023-04-01T17:06:00;17.80;;;4.23;;
1682;SDS011;13252;53.596;10.060;2023-04-01T17:08:47;7.60;;;4.83;;